Time;durP1;ratioP1;P1;durP2;ratioP2;P2;SDS_P1;SDS_P2;PMS_P1;PMS_P2;Temp;Humidity;BMP_temperature;BMP_pressure;BME280_temperature;BME280_humidity;BME280_pressure;Samples;Min_cycle;Max_cycle;Signal;HPM_P1;HPM_P2
2021/10/18 00:01:48;;;;;;;16.25;10.23;;;24.40;37.20;;;;;;6242995;27;85163;-70
2021/10/18 00:04:48;;;;;;;18.65;10.00;;;24.40;36.90;;;;;;6253710;27;83254;-70
2021/10/18 00:07:48;;;;;;;15.93;10.30;;;24.40;37.00;;;;;;6254128;27;83113;-71
2021/10/18 00:10:49;;;;;;;17.35;10.13;;;24.40;36.90;;;;;;6248532;27;84226;-70
2021/10/18 00:13:50;;;;;;;13.25;9.32;;;24.40;37.10;;;;;;6251934;27;82959;-70
2021/10/18 00:16:50;;;;;;;18.83;10.60;;;24.40;37.10;;;;;;6255689;27;83031;-70
2021/10/18 00:19:51;;;;;;;16.45;10.48;;;24.40;36.70;;;;;;6253001;27;82780;-70
2021/10/18 00:22:53;;;;;;;21.63;11.50;;;24.40;36.80;;;;;;6249980;27;83216;-69
2021/10/18 00:25:53;;;;;;;18.58;11.52;;;24.40;36.80;;;;;;6252059;27;86499;-69
2021/10/18 00:28:54;;;;;;;17.70;10.80;;;24.40;36.80;;;;;;6240354;27;83105;-69
2021/10/18 00:31:54;;;;;;;19.05;10.93;;;24.30;36.60;;;;;;6255334;27;84239;-69
2021/10/18 00:34:55;;;;;;;17.27;10.82;;;24.40;36.80;;;;;;6247139;27;83210;-69
2021/10/18 00:37:55;;;;;;;19.42;11.35;;;24.30;36.70;;;;;;6248241;27;84118;-69
2021/10/18 00:40:56;;;;;;;19.75;11.57;;;24.30;36.80;;;;;;6252698;27;83415;-67
2021/10/18 00:43:56;;;;;;;17.73;11.60;;;24.30;36.70;;;;;;6254976;27;83188;-68
2021/10/18 00:46:57;;;;;;;18.02;10.95;;;24.30;36.60;;;;;;6255045;27;83147;-68
2021/10/18 00:49:57;;;;;;;20.38;11.98;;;24.40;36.50;;;;;;6256942;27;83111;-68
2021/10/18 00:52:58;;;;;;;18.67;11.45;;;24.30;36.20;;;;;;6250685;27;83538;-68
2021/10/18 00:55:58;;;;;;;21.45;12.65;;;24.30;36.20;;;;;;6246086;27;83243;-70
2021/10/18 00:58:59;;;;;;;20.40;12.07;;;24.30;36.50;;;;;;6251972;27;83198;-69
2021/10/18 01:01:59;;;;;;;20.00;12.73;;;24.30;36.40;;;;;;6255728;27;83629;-70
2021/10/18 01:05:00;;;;;;;21.75;12.98;;;24.30;36.50;;;;;;6255985;27;83175;-71
2021/10/18 01:08:00;;;;;;;21.05;12.60;;;24.30;36.30;;;;;;6253652;27;84656;-71
2021/10/18 01:11:02;;;;;;;21.48;13.73;;;24.30;36.40;;;;;;6243535;27;83184;-71
2021/10/18 01:14:03;;;;;;;21.60;13.35;;;24.30;36.30;;;;;;6254130;27;84679;-71
2021/10/18 01:17:03;;;;;;;24.65;13.25;;;24.30;36.30;;;;;;6252821;27;83169;-71
2021/10/18 01:20:04;;;;;;;22.60;13.65;;;24.30;36.50;;;;;;6254293;27;84584;-71
2021/10/18 01:23:04;;;;;;;20.67;12.93;;;24.30;36.20;;;;;;6245105;27;85302;-71
2021/10/18 01:26:05;;;;;;;19.63;12.57;;;24.30;36.40;;;;;;6247352;27;83043;-71
2021/10/18 01:29:05;;;;;;;22.00;13.20;;;24.30;36.50;;;;;;6254621;27;84107;-70
2021/10/18 01:32:06;;;;;;;23.83;13.98;;;24.30;36.20;;;;;;6254593;27;83235;-70
2021/10/18 01:35:06;;;;;;;20.88;13.15;;;24.30;36.20;;;;;;6256159;27;84828;-69
2021/10/18 01:38:07;;;;;;;23.60;14.35;;;24.30;36.20;;;;;;6244064;27;85977;-69
2021/10/18 01:41:07;;;;;;;24.23;13.68;;;24.30;36.00;;;;;;6248525;27;83392;-69
2021/10/18 01:44:08;;;;;;;24.90;14.63;;;24.30;36.40;;;;;;6253455;27;83071;-69
2021/10/18 01:47:08;;;;;;;27.73;15.35;;;24.30;36.00;;;;;;6255211;27;83335;-69
2021/10/18 01:50:09;;;;;;;26.13;14.32;;;24.20;36.50;;;;;;6250647;27;84037;-70
2021/10/18 01:53:09;;;;;;;22.92;13.15;;;24.20;36.20;;;;;;6251650;27;83627;-70
2021/10/18 01:56:10;;;;;;;22.65;13.30;;;24.30;36.30;;;;;;6245279;27;83525;-70
2021/10/18 01:59:10;;;;;;;25.38;15.68;;;24.30;36.40;;;;;;6254187;27;83178;-70
2021/10/18 02:02:11;;;;;;;22.60;13.60;;;24.30;36.10;;;;;;6255127;27;83119;-71
2021/10/18 02:05:11;;;;;;;23.70;13.27;;;24.30;36.30;;;;;;6240333;27;83242;-70
2021/10/18 02:08:12;;;;;;;22.98;12.77;;;24.30;36.50;;;;;;6252369;27;83092;-71
2021/10/18 02:11:12;;;;;;;24.08;14.45;;;24.20;36.20;;;;;;6251866;27;82948;-70
2021/10/18 02:14:13;;;;;;;23.75;13.30;;;24.30;36.20;;;;;;6254768;27;83558;-68
2021/10/18 02:17:13;;;;;;;21.77;13.90;;;24.30;36.40;;;;;;6260963;27;83747;-67
2021/10/18 02:20:14;;;;;;;21.90;12.45;;;24.30;36.30;;;;;;6260245;27;84044;-66
2021/10/18 02:23:14;;;;;;;23.60;13.57;;;24.20;36.10;;;;;;6248689;27;84142;-67
2021/10/18 02:26:15;;;;;;;22.23;13.30;;;24.30;35.90;;;;;;6242320;27;83756;-67
2021/10/18 02:29:15;;;;;;;24.15;13.65;;;24.30;35.50;;;;;;6253417;27;84426;-67
2021/10/18 02:32:16;;;;;;;19.38;13.02;;;24.30;35.40;;;;;;6244503;27;84189;-67
2021/10/18 02:35:16;;;;;;;20.33;12.35;;;24.30;35.60;;;;;;6243994;27;84767;-67
2021/10/18 02:38:17;;;;;;;20.60;11.82;;;24.40;35.80;;;;;;6252451;27;83282;-67
2021/10/18 02:41:17;;;;;;;21.38;11.77;;;24.40;35.90;;;;;;6246191;27;84702;-67
2021/10/18 02:44:18;;;;;;;18.35;11.43;;;24.40;36.00;;;;;;6238559;27;83997;-67
2021/10/18 02:47:18;;;;;;;18.90;11.55;;;24.40;36.10;;;;;;6241688;28;83273;-67
2021/10/18 02:50:19;;;;;;;18.05;10.50;;;24.50;36.20;;;;;;6253523;27;84452;-67
2021/10/18 02:53:19;;;;;;;20.38;10.85;;;24.50;36.20;;;;;;6250995;27;83011;-67
2021/10/18 02:56:20;;;;;;;19.50;10.80;;;24.50;36.30;;;;;;6253056;27;83141;-67
2021/10/18 02:59:20;;;;;;;20.30;10.60;;;24.50;36.30;;;;;;6253814;27;82829;-67
2021/10/18 03:02:21;;;;;;;17.42;10.43;;;24.60;36.30;;;;;;6251895;27;85822;-67
2021/10/18 03:05:22;;;;;;;14.52;9.88;;;24.60;36.40;;;;;;6241070;27;83221;-67
2021/10/18 03:08:22;;;;;;;14.95;9.88;;;24.60;36.40;;;;;;6257405;27;83361;-67
2021/10/18 03:11:23;;;;;;;16.15;10.20;;;24.50;36.30;;;;;;6254984;27;80901;-67
2021/10/18 03:14:23;;;;;;;17.58;9.98;;;24.60;36.40;;;;;;6253318;27;83129;-67
2021/10/18 03:17:24;;;;;;;16.90;9.95;;;24.60;37.10;;;;;;6252241;27;84163;-66
2021/10/18 03:20:24;;;;;;;15.45;9.30;;;24.60;36.40;;;;;;6252688;27;83348;-66
2021/10/18 03:23:25;;;;;;;15.95;10.05;;;24.60;36.50;;;;;;6255917;27;80518;-67
2021/10/18 03:26:25;;;;;;;15.98;9.75;;;24.60;36.50;;;;;;6252208;27;82804;-67
2021/10/18 03:29:26;;;;;;;16.60;9.65;;;24.60;36.50;;;;;;6237828;27;82885;-67
2021/10/18 03:32:26;;;;;;;15.63;9.38;;;24.60;36.50;;;;;;6246820;27;81361;-67
2021/10/18 03:35:27;;;;;;;16.55;9.63;;;24.60;36.60;;;;;;6255634;27;83216;-67
2021/10/18 03:38:27;;;;;;;15.55;10.18;;;24.60;36.50;;;;;;6257458;27;82203;-67
2021/10/18 03:41:28;;;;;;;15.68;9.85;;;24.60;36.60;;;;;;6246200;27;84216;-66
2021/10/18 03:44:28;;;;;;;18.80;10.32;;;24.60;36.60;;;;;;6252583;27;82727;-66
2021/10/18 03:47:29;;;;;;;15.73;10.05;;;24.70;36.70;;;;;;6250446;27;83274;-66
2021/10/18 03:50:29;;;;;;;14.20;9.00;;;24.70;36.70;;;;;;6248476;27;83974;-64
2021/10/18 03:53:30;;;;;;;15.48;9.02;;;24.70;37.40;;;;;;6255039;27;82982;-66
2021/10/18 03:56:30;;;;;;;15.63;9.77;;;24.70;36.70;;;;;;6244957;28;80497;-64
2021/10/18 03:59:31;;;;;;;14.07;9.00;;;24.60;37.20;;;;;;6253506;27;80763;-65
2021/10/18 04:02:31;;;;;;;14.13;9.25;;;24.60;37.20;;;;;;6251095;27;80546;-65
2021/10/18 04:05:32;;;;;;;16.20;10.10;;;24.70;37.10;;;;;;6253400;27;80387;-64
2021/10/18 04:08:33;;;;;;;14.80;9.23;;;24.70;37.00;;;;;;6256868;27;82631;-66
2021/10/18 04:11:38;;;;;;;17.40;10.48;;;24.60;36.90;;;;;;6259101;27;82876;-64
2021/10/18 04:14:38;;;;;;;21.77;11.47;;;24.70;36.90;;;;;;6257753;27;83202;-65
2021/10/18 04:17:39;;;;;;;20.40;11.13;;;24.70;36.90;;;;;;6252621;27;84194;-66
2021/10/18 04:20:40;;;;;;;24.35;11.40;;;24.70;36.80;;;;;;6252520;27;84161;-64
2021/10/18 04:23:40;;;;;;;20.30;11.13;;;24.70;36.80;;;;;;6256732;27;83100;-66
2021/10/18 04:26:41;;;;;;;22.52;11.40;;;24.70;36.70;;;;;;6248796;27;83293;-65
2021/10/18 04:29:41;;;;;;;19.90;11.60;;;24.80;36.60;;;;;;6245592;27;83253;-65
2021/10/18 04:32:42;;;;;;;24.00;12.13;;;24.70;36.60;;;;;;6254223;27;83086;-64
2021/10/18 04:35:43;;;;;;;21.83;11.95;;;24.70;37.20;;;;;;6254758;27;85543;-66
2021/10/18 04:38:43;;;;;;;21.05;11.80;;;24.70;36.50;;;;;;6254422;27;83234;-64
2021/10/18 04:41:43;;;;;;;24.25;11.77;;;24.70;36.40;;;;;;6253668;27;83293;-65
2021/10/18 04:44:44;;;;;;;21.02;10.80;;;24.70;36.50;;;;;;6255232;27;83263;-64
2021/10/18 04:47:45;;;;;;;23.23;11.52;;;24.70;36.40;;;;;;6253217;27;82927;-64
2021/10/18 04:50:45;;;;;;;19.77;10.57;;;24.70;36.40;;;;;;6255598;27;82935;-65
2021/10/18 04:53:46;;;;;;;19.95;10.77;;;24.70;36.70;;;;;;6257286;27;83329;-63
2021/10/18 04:56:46;;;;;;;24.92;12.00;;;24.70;37.30;;;;;;6255951;27;85860;-64
2021/10/18 04:59:47;;;;;;;18.80;11.40;;;24.60;37.60;;;;;;6254496;27;83561;-64
2021/10/18 05:02:47;;;;;;;19.67;11.52;;;24.60;38.00;;;;;;6254099;27;83381;-64
2021/10/18 05:05:48;;;;;;;19.42;11.02;;;24.60;38.30;;;;;;6256407;27;83371;-65
2021/10/18 05:08:48;;;;;;;21.83;10.98;;;24.60;38.60;;;;;;6254980;27;85354;-65
2021/10/18 05:11:49;;;;;;;19.15;10.85;;;24.60;38.90;;;;;;6253921;27;83433;-64
2021/10/18 05:14:49;;;;;;;19.08;10.23;;;24.60;38.90;;;;;;6255945;27;82963;-64
2021/10/18 05:17:50;;;;;;;18.98;10.95;;;24.60;38.90;;;;;;6254308;27;83500;-64
2021/10/18 05:20:50;;;;;;;16.90;9.73;;;24.60;39.00;;;;;;6253501;27;86076;-65
2021/10/18 05:23:51;;;;;;;18.38;10.27;;;24.60;38.90;;;;;;6258467;27;82843;-65
2021/10/18 05:26:51;;;;;;;23.50;10.85;;;24.60;38.80;;;;;;6255189;27;83432;-65
2021/10/18 05:29:52;;;;;;;18.08;9.73;;;24.70;38.50;;;;;;6238417;27;83023;-67
2021/10/18 05:32:52;;;;;;;19.25;10.68;;;24.70;38.30;;;;;;6254195;27;83136;-66
2021/10/18 05:35:53;;;;;;;27.00;10.70;;;24.70;38.40;;;;;;6253829;27;83174;-66
2021/10/18 05:38:54;;;;;;;17.20;9.68;;;24.60;39.00;;;;;;6253811;27;83004;-65
2021/10/18 05:41:54;;;;;;;19.55;11.15;;;24.60;38.50;;;;;;6258643;27;83134;-65
2021/10/18 05:44:55;;;;;;;15.13;9.90;;;24.60;38.50;;;;;;6254159;27;83542;-65
2021/10/18 05:47:55;;;;;;;19.33;10.25;;;24.60;38.40;;;;;;6256689;27;85786;-64
2021/10/18 05:50:56;;;;;;;21.88;11.23;;;24.60;38.40;;;;;;6241775;27;82955;-70
2021/10/18 05:53:58;;;;;;;25.42;11.00;;;24.60;38.70;;;;;;6251427;27;84533;-65
2021/10/18 05:56:58;;;;;;;20.95;9.40;;;24.60;39.20;;;;;;6253297;27;83043;-66
2021/10/18 05:59:59;;;;;;;18.27;9.50;;;24.50;39.10;;;;;;6253411;27;82938;-65
2021/10/18 06:02:59;;;;;;;20.92;10.88;;;24.60;38.90;;;;;;6256257;27;80465;-66
2021/10/18 06:06:01;;;;;;;17.42;10.35;;;24.60;39.60;;;;;;6253256;27;83196;-66
2021/10/18 06:09:02;;;;;;;20.02;10.55;;;24.50;39.70;;;;;;6250717;27;83237;-66
2021/10/18 06:12:02;;;;;;;19.63;10.80;;;24.50;39.60;;;;;;6246493;27;85472;-66
2021/10/18 06:15:03;;;;;;;20.80;10.07;;;24.50;39.40;;;;;;6245905;27;85074;-66
2021/10/18 06:18:03;;;;;;;18.00;11.10;;;24.50;39.30;;;;;;6252848;27;83576;-66
2021/10/18 06:21:04;;;;;;;21.45;12.10;;;24.50;39.10;;;;;;6250249;27;83860;-67
2021/10/18 06:24:04;;;;;;;19.27;11.63;;;24.50;38.90;;;;;;6250130;27;82983;-65
2021/10/18 06:27:05;;;;;;;18.25;10.88;;;24.50;38.90;;;;;;6253557;27;83069;-66
2021/10/18 06:30:05;;;;;;;17.52;11.73;;;24.50;39.10;;;;;;6254441;27;83497;-66
2021/10/18 06:33:06;;;;;;;21.02;11.57;;;24.40;38.60;;;;;;6251393;27;84829;-65
2021/10/18 06:36:06;;;;;;;18.33;11.32;;;24.40;38.80;;;;;;6252168;27;83928;-66
2021/10/18 06:39:07;;;;;;;21.55;12.15;;;24.50;38.60;;;;;;6244956;27;83267;-65
2021/10/18 06:42:07;;;;;;;23.92;12.43;;;24.50;38.80;;;;;;6244769;27;83957;-66
2021/10/18 06:45:08;;;;;;;17.42;11.35;;;24.40;38.30;;;;;;6251366;27;84234;-66
2021/10/18 06:48:08;;;;;;;19.42;10.38;;;24.40;38.40;;;;;;6253411;27;83359;-65
2021/10/18 06:51:09;;;;;;;17.85;10.80;;;24.50;38.60;;;;;;6247385;27;83467;-64
2021/10/18 06:54:10;;;;;;;18.33;11.00;;;24.40;38.20;;;;;;6246476;27;83949;-65
2021/10/18 06:58:55;;;;;;;23.08;13.18;;;24.40;37.60;;;;;;6219734;27;74902;-69
2021/10/18 07:01:55;;;;;;;22.85;14.13;;;24.20;37.70;;;;;;6170930;28;83418;-68
2021/10/18 07:04:56;;;;;;;28.90;15.13;;;24.10;37.40;;;;;;6173587;28;83200;-67
2021/10/18 07:07:56;;;;;;;22.92;14.65;;;23.90;37.60;;;;;;6173923;28;84622;-67
2021/10/18 07:10:57;;;;;;;24.92;15.57;;;23.80;37.40;;;;;;6172315;28;83244;-67
2021/10/18 07:13:57;;;;;;;28.15;16.30;;;23.70;37.20;;;;;;6172614;28;84626;-67
2021/10/18 07:16:58;;;;;;;26.75;15.48;;;23.60;37.50;;;;;;6171331;28;84141;-67
2021/10/18 07:19:58;;;;;;;23.70;14.93;;;23.50;37.90;;;;;;6166849;28;84014;-68
2021/10/18 07:23:00;;;;;;;28.70;16.48;;;23.50;37.90;;;;;;6166189;28;84142;-67
2021/10/18 07:26:03;;;;;;;28.48;16.63;;;23.50;37.70;;;;;;6154713;28;83081;-67
2021/10/18 07:29:03;;;;;;;33.35;18.20;;;23.40;37.60;;;;;;6168181;28;83355;-71
2021/10/18 07:32:04;;;;;;;27.40;16.45;;;23.70;43.00;;;;;;6167329;28;84049;-70
2021/10/18 07:35:04;;;;;;;24.63;15.07;;;23.30;42.30;;;;;;6169043;28;83186;-67
2021/10/18 07:38:06;;;;;;;26.73;15.70;;;23.20;42.40;;;;;;6171954;28;83137;-70
2021/10/18 07:41:06;;;;;;;25.08;14.88;;;23.20;42.10;;;;;;6157619;28;84083;-69
2021/10/18 07:44:07;;;;;;;27.73;15.15;;;23.10;42.10;;;;;;6166530;28;84400;-71
2021/10/18 07:47:07;;;;;;;29.70;15.15;;;23.20;42.40;;;;;;6158750;28;82855;-70
2021/10/18 07:50:10;;;;;;;22.30;13.43;;;23.10;42.50;;;;;;6167179;28;83740;-70
2021/10/18 07:53:10;;;;;;;22.20;12.82;;;23.10;42.50;;;;;;6157811;28;83528;-71
2021/10/18 07:56:11;;;;;;;23.20;12.35;;;23.10;43.20;;;;;;6167455;28;84215;-70
2021/10/18 07:59:12;;;;;;;22.90;12.93;;;23.20;43.20;;;;;;6150246;28;84462;-71
2021/10/18 08:02:13;;;;;;;20.35;12.40;;;23.20;43.30;;;;;;6159925;28;83685;-72
2021/10/18 08:05:16;;;;;;;27.08;11.98;;;23.20;43.20;;;;;;6176715;28;83453;-69
2021/10/18 08:08:21;;;;;;;21.50;12.10;;;23.20;43.20;;;;;;6178258;28;83259;-70
2021/10/18 08:11:22;;;;;;;16.98;11.30;;;23.20;43.20;;;;;;6134241;28;84634;-70
2021/10/18 08:14:22;;;;;;;21.55;12.75;;;23.20;43.20;;;;;;6135444;28;83057;-71
2021/10/18 08:17:23;;;;;;;22.38;12.25;;;23.20;43.10;;;;;;6138859;28;83343;-70
2021/10/18 08:20:23;;;;;;;21.92;11.27;;;23.20;43.30;;;;;;6151124;28;84522;-70
2021/10/18 08:23:24;;;;;;;21.00;12.00;;;23.20;43.30;;;;;;6149530;28;82893;-71
2021/10/18 08:26:25;;;;;;;20.13;11.95;;;23.30;43.30;;;;;;6144472;28;83067;-70
2021/10/18 08:29:25;;;;;;;20.83;12.50;;;23.20;43.00;;;;;;6139197;28;82985;-70
2021/10/18 08:32:26;;;;;;;20.27;11.25;;;23.20;43.10;;;;;;6140171;28;85590;-70
2021/10/18 08:35:26;;;;;;;18.88;10.07;;;23.20;43.20;;;;;;6150821;28;84205;-69
2021/10/18 08:41:40;;;;;;;15.65;8.75;;;23.30;43.40;;;;;;6144060;28;83233;-71
2021/10/18 08:44:40;;;;;;;19.75;9.32;;;23.30;43.30;;;;;;6153248;28;81877;-69
2021/10/18 08:47:41;;;;;;;14.18;8.85;;;23.30;43.90;;;;;;6152784;28;81443;-68
2021/10/18 08:50:41;;;;;;;13.55;8.15;;;23.40;43.50;;;;;;6155641;28;80321;-69
2021/10/18 08:53:42;;;;;;;13.93;8.55;;;23.40;43.10;;;;;;6143464;28;80616;-68
2021/10/18 08:56:42;;;;;;;13.25;8.45;;;23.50;42.70;;;;;;6145570;28;81534;-69
2021/10/18 08:59:43;;;;;;;12.82;8.07;;;23.60;42.80;;;;;;6150550;28;81678;-68
2021/10/18 09:02:43;;;;;;;14.23;8.75;;;23.60;42.60;;;;;;6142849;28;81054;-69
2021/10/18 09:05:44;;;;;;;12.43;8.00;;;23.60;42.50;;;;;;6154525;28;81227;-69
2021/10/18 09:08:44;;;;;;;12.75;7.18;;;23.70;42.40;;;;;;6153937;28;80242;-68
2021/10/18 09:11:47;;;;;;;13.35;7.18;;;23.70;42.40;;;;;;6143355;28;81590;-68
2021/10/18 09:14:48;;;;;;;15.23;7.80;;;23.80;42.20;;;;;;6148535;28;86855;-69
2021/10/18 09:17:48;;;;;;;10.50;6.70;;;23.80;42.40;;;;;;6148486;28;80786;-69
2021/10/18 09:20:49;;;;;;;13.88;7.30;;;23.80;42.20;;;;;;6141096;28;81165;-68
2021/10/18 09:23:49;;;;;;;12.82;6.85;;;23.90;42.20;;;;;;6140275;28;80358;-69
2021/10/18 09:26:50;;;;;;;12.10;6.82;;;23.90;42.20;;;;;;6151624;28;81599;-68
2021/10/18 09:29:52;;;;;;;13.95;7.10;;;23.90;42.20;;;;;;6156355;28;80282;-70
2021/10/18 09:32:52;;;;;;;10.95;6.57;;;23.90;42.20;;;;;;6151300;28;80935;-68
2021/10/18 09:35:53;;;;;;;9.82;6.40;;;24.00;42.30;;;;;;6151192;28;81819;-69
2021/10/18 09:38:53;;;;;;;14.02;7.05;;;24.00;42.40;;;;;;6146061;28;80556;-68
2021/10/18 09:41:54;;;;;;;10.18;6.57;;;24.00;42.40;;;;;;6147866;28;80922;-69
2021/10/18 10:54:50;;;;;;;10.82;7.20;;;24.10;43.30;;;;;;6154013;28;80751;-68
2021/10/18 10:57:52;;;;;;;9.65;7.18;;;24.10;43.30;;;;;;6147439;28;80971;-69
2021/10/18 11:00:52;;;;;;;11.02;7.18;;;24.10;43.40;;;;;;6157516;28;80878;-69
2021/10/18 11:03:53;;;;;;;11.70;7.53;;;24.00;43.40;;;;;;6155520;28;80512;-68
2021/10/18 11:06:53;;;;;;;10.90;7.72;;;24.00;43.40;;;;;;6144133;28;80681;-67
2021/10/18 11:09:54;;;;;;;12.23;8.10;;;24.00;43.40;;;;;;6148319;28;82790;-68
2021/10/18 11:12:55;;;;;;;14.45;8.45;;;24.00;43.30;;;;;;6147195;28;80519;-69
2021/10/18 11:15:55;;;;;;;12.95;8.75;;;24.00;43.40;;;;;;6148389;28;80658;-69
2021/10/18 11:18:56;;;;;;;14.98;8.80;;;23.90;43.40;;;;;;6145969;28;80907;-68
2021/10/18 11:21:57;;;;;;;14.43;8.30;;;23.90;43.60;;;;;;6152483;28;80592;-69
2021/10/18 11:24:57;;;;;;;13.75;8.82;;;23.90;43.60;;;;;;6148772;28;81334;-68
2021/10/18 11:27:58;;;;;;;16.63;8.55;;;23.90;43.80;;;;;;6148820;28;80615;-69
2021/10/18 11:30:58;;;;;;;13.70;8.10;;;23.90;43.80;;;;;;6150413;28;81985;-67
2021/10/18 11:33:59;;;;;;;13.68;8.55;;;24.00;43.80;;;;;;6147664;28;80571;-70
2021/10/18 11:37:00;;;;;;;12.73;7.80;;;24.00;44.00;;;;;;6150914;28;80413;-69
2021/10/18 11:40:00;;;;;;;10.63;7.43;;;24.00;44.00;;;;;;6149388;28;83033;-69
2021/10/18 11:43:01;;;;;;;10.77;8.32;;;24.00;44.00;;;;;;6151519;28;80839;-69
2021/10/18 11:46:01;;;;;;;14.57;9.38;;;24.00;44.30;;;;;;6155500;28;81016;-68
2021/10/18 11:49:02;;;;;;;11.93;8.48;;;24.00;44.60;;;;;;6153568;28;80671;-69
2021/10/18 11:52:02;;;;;;;14.88;8.90;;;24.00;44.50;;;;;;6156969;28;80349;-67
2021/10/18 11:55:03;;;;;;;17.20;10.15;;;24.00;44.40;;;;;;6158141;28;80927;-69
2021/10/18 11:58:06;;;;;;;15.90;10.48;;;24.00;44.50;;;;;;6149564;28;83168;-71
2021/10/18 12:01:06;;;;;;;13.30;9.20;;;24.00;44.60;;;;;;6150112;28;83354;-69
2021/10/18 12:04:08;;;;;;;12.88;9.20;;;24.00;44.60;;;;;;6155115;28;82936;-70
2021/10/18 12:07:08;;;;;;;13.32;9.02;;;24.00;44.40;;;;;;6154700;28;81848;-70
2021/10/18 12:10:09;;;;;;;13.18;9.45;;;24.00;44.60;;;;;;6157078;28;81000;-68
2021/10/18 12:13:09;;;;;;;15.88;10.40;;;24.00;44.80;;;;;;6153745;28;80592;-69
2021/10/18 12:16:10;;;;;;;13.68;9.93;;;24.00;44.80;;;;;;6149412;28;83229;-70
2021/10/18 12:19:10;;;;;;;14.85;9.90;;;24.00;44.90;;;;;;6155002;28;83177;-72
2021/10/18 12:22:11;;;;;;;13.95;9.20;;;24.00;44.70;;;;;;6155695;28;80920;-70
2021/10/18 12:25:11;;;;;;;14.60;9.65;;;24.00;45.00;;;;;;6154517;28;81404;-70
2021/10/18 12:28:12;;;;;;;12.35;9.35;;;23.90;45.00;;;;;;6142609;28;81653;-72
2021/10/18 12:31:12;;;;;;;13.35;9.18;;;24.00;44.90;;;;;;6150310;28;81477;-71
2021/10/18 12:34:13;;;;;;;14.52;10.23;;;23.90;44.80;;;;;;6149501;28;80460;-69
2021/10/18 12:37:15;;;;;;;16.27;9.82;;;23.90;44.80;;;;;;6141683;28;83068;-70
2021/10/18 12:40:16;;;;;;;11.93;8.85;;;23.90;44.80;;;;;;6151505;28;83186;-69
2021/10/18 12:43:16;;;;;;;14.20;9.48;;;23.90;44.80;;;;;;6145948;28;83389;-72
2021/10/18 12:46:17;;;;;;;14.90;9.00;;;23.90;44.80;;;;;;6153418;28;80293;-74
2021/10/18 12:49:17;;;;;;;12.68;9.52;;;23.90;44.90;;;;;;6143464;28;82075;-70
2021/10/18 12:52:18;;;;;;;14.35;9.48;;;23.90;45.00;;;;;;6151574;28;85964;-68
2021/10/18 12:55:18;;;;;;;16.02;9.90;;;23.90;45.10;;;;;;6148946;28;81692;-70
2021/10/18 12:58:20;;;;;;;15.65;9.98;;;23.90;45.00;;;;;;6150807;28;81618;-70
2021/10/18 13:01:21;;;;;;;17.73;10.57;;;23.90;44.90;;;;;;6148510;28;83057;-72
2021/10/18 13:04:21;;;;;;;14.15;9.77;;;23.90;45.10;;;;;;6155817;28;83123;-71
2021/10/18 13:07:22;;;;;;;15.18;10.15;;;23.90;45.30;;;;;;6144893;28;83334;-71
2021/10/18 13:10:23;;;;;;;14.88;10.38;;;23.90;45.50;;;;;;6143769;28;83145;-73
2021/10/18 13:13:24;;;;;;;14.45;10.35;;;23.90;45.60;;;;;;6142273;28;83023;-72
2021/10/18 13:16:26;;;;;;;19.80;10.68;;;23.90;45.50;;;;;;6148403;28;83336;-74
2021/10/18 13:19:26;;;;;;;17.52;10.93;;;23.90;45.60;;;;;;6137499;28;83382;-74
2021/10/18 13:22:27;;;;;;;16.00;10.98;;;23.90;45.40;;;;;;6137320;28;84436;-68
2021/10/18 13:25:27;;;;;;;19.45;11.38;;;23.90;45.40;;;;;;6138749;28;83821;-72
2021/10/18 13:28:28;;;;;;;16.55;10.52;;;23.90;45.30;;;;;;6145767;28;84136;-72
2021/10/18 13:31:28;;;;;;;15.45;10.35;;;23.90;45.30;;;;;;6147856;28;83280;-72
2021/10/18 13:34:29;;;;;;;16.63;10.57;;;23.80;45.20;;;;;;6143590;28;83898;-72
2021/10/18 13:37:29;;;;;;;18.67;12.07;;;23.90;45.20;;;;;;6144992;28;83514;-73
2021/10/18 13:40:32;;;;;;;17.92;10.88;;;23.90;45.10;;;;;;6150107;28;83174;-71
2021/10/18 13:43:35;;;;;;;18.90;11.38;;;23.90;45.00;;;;;;6147597;28;83116;-72
2021/10/18 13:46:36;;;;;;;16.38;10.90;;;23.80;44.90;;;;;;6147630;28;83857;-71
2021/10/18 13:49:36;;;;;;;16.88;11.38;;;23.80;45.00;;;;;;6148400;28;83267;-67
2021/10/18 13:52:37;;;;;;;17.35;11.15;;;23.80;44.90;;;;;;6140981;28;83957;-70
2021/10/18 13:55:37;;;;;;;21.92;11.57;;;23.80;45.00;;;;;;6141234;28;84034;-68
2021/10/18 13:58:39;;;;;;;22.02;12.82;;;23.80;45.00;;;;;;6139380;28;84404;-69
2021/10/18 14:01:40;;;;;;;23.08;12.70;;;23.80;45.40;;;;;;6151927;28;83267;-67
2021/10/18 14:04:40;;;;;;;17.58;11.98;;;23.80;45.50;;;;;;6151383;28;83241;-66
2021/10/18 14:07:41;;;;;;;33.85;12.80;;;23.80;45.50;;;;;;6149154;28;84045;-68
2021/10/18 14:10:41;;;;;;;17.17;11.25;;;23.80;45.80;;;;;;6147663;28;83379;-68
2021/10/18 14:13:42;;;;;;;17.35;11.60;;;23.80;45.70;;;;;;6145177;28;83182;-68
2021/10/18 14:16:42;;;;;;;20.52;11.60;;;23.80;45.90;;;;;;6148237;28;83100;-68
2021/10/18 14:19:43;;;;;;;17.80;11.20;;;23.80;45.90;;;;;;6148785;28;83301;-67
2021/10/18 14:22:43;;;;;;;26.67;12.90;;;23.80;46.30;;;;;;6149103;28;83831;-67
2021/10/18 14:25:44;;;;;;;18.77;12.85;;;23.90;46.20;;;;;;6143061;28;83818;-67
2021/10/18 14:28:44;;;;;;;18.73;12.35;;;23.90;46.30;;;;;;6147366;28;84193;-66
2021/10/18 14:31:45;;;;;;;18.98;12.40;;;23.80;45.90;;;;;;6147642;28;82962;-67
2021/10/18 14:34:45;;;;;;;17.90;11.50;;;23.90;46.00;;;;;;6142425;28;83117;-67
2021/10/18 14:37:46;;;;;;;17.85;11.10;;;23.80;46.00;;;;;;6141573;28;85698;-67
2021/10/18 14:40:47;;;;;;;18.45;11.82;;;23.80;46.00;;;;;;6147184;28;84039;-67
2021/10/18 14:43:48;;;;;;;19.67;13.27;;;23.80;46.30;;;;;;6148174;28;83375;-67
2021/10/18 14:46:49;;;;;;;18.70;12.00;;;23.90;46.30;;;;;;6150051;28;83115;-67
2021/10/18 14:49:49;;;;;;;25.98;12.27;;;23.90;46.30;;;;;;6142315;28;86122;-67
2021/10/18 14:52:50;;;;;;;18.88;12.93;;;23.90;46.40;;;;;;6147691;28;85678;-68
2021/10/18 14:55:52;;;;;;;20.48;12.63;;;23.90;46.10;;;;;;6144994;28;82677;-67
2021/10/18 14:58:55;;;;;;;22.50;12.70;;;23.90;46.20;;;;;;6144842;28;83215;-68
2021/10/18 15:01:55;;;;;;;18.80;12.85;;;23.90;46.20;;;;;;6148753;28;83660;-67
2021/10/18 15:04:56;;;;;;;19.90;12.40;;;23.90;46.30;;;;;;6150157;28;82928;-67
2021/10/18 15:07:57;;;;;;;20.85;13.18;;;23.90;46.60;;;;;;6146893;28;83261;-68
2021/10/18 15:10:57;;;;;;;18.83;12.05;;;23.90;46.30;;;;;;6147790;28;84017;-68
2021/10/18 15:13:58;;;;;;;20.63;13.07;;;23.90;46.40;;;;;;6143789;28;83835;-67
2021/10/18 15:16:58;;;;;;;17.38;12.45;;;23.90;46.40;;;;;;6148327;28;84499;-67
2021/10/18 15:19:59;;;;;;;16.42;11.35;;;23.90;47.10;;;;;;6148493;28;83497;-67
2021/10/18 15:22:59;;;;;;;22.77;12.98;;;23.90;46.60;;;;;;6148014;28;83184;-68
2021/10/18 15:26:00;;;;;;;19.60;11.93;;;23.90;46.70;;;;;;6146406;28;84430;-68
2021/10/18 15:29:02;;;;;;;16.33;11.95;;;23.90;46.60;;;;;;6154279;28;83564;-67
2021/10/18 15:32:03;;;;;;;21.20;13.23;;;23.90;46.60;;;;;;6152437;28;90554;-65
2021/10/18 15:35:03;;;;;;;17.38;12.45;;;23.90;46.70;;;;;;6154520;28;83854;-68
2021/10/18 15:38:04;;;;;;;20.58;13.40;;;23.90;47.20;;;;;;6150654;28;85883;-70
2021/10/18 15:41:04;;;;;;;21.42;12.73;;;23.90;47.00;;;;;;6150235;28;83276;-69
2021/10/18 15:44:06;;;;;;;18.58;12.57;;;23.90;46.90;;;;;;6148663;28;85035;-68
2021/10/18 15:47:07;;;;;;;22.10;12.57;;;24.00;48.00;;;;;;6153927;28;83676;-68
2021/10/18 15:50:08;;;;;;;17.50;12.27;;;24.00;47.50;;;;;;6153307;28;83495;-68
2021/10/18 15:53:08;;;;;;;17.38;11.65;;;23.90;47.40;;;;;;6156699;28;83441;-69
2021/10/18 15:56:09;;;;;;;21.67;12.57;;;24.00;47.90;;;;;;6149906;28;83071;-69
2021/10/18 15:59:10;;;;;;;17.65;11.57;;;23.90;47.80;;;;;;6147887;28;83230;-71
2021/10/18 16:02:10;;;;;;;19.80;12.35;;;23.90;47.80;;;;;;6147924;28;83818;-69
2021/10/18 16:05:11;;;;;;;19.17;11.75;;;24.00;47.80;;;;;;6150347;28;83281;-70
2021/10/18 16:08:11;;;;;;;19.48;11.23;;;23.90;47.40;;;;;;6150239;28;84239;-68
2021/10/18 16:11:12;;;;;;;15.43;10.60;;;23.90;47.90;;;;;;6148301;28;82987;-69
2021/10/18 16:14:13;;;;;;;17.02;11.18;;;24.00;47.70;;;;;;6150196;28;84654;-69
2021/10/18 16:17:13;;;;;;;16.80;11.18;;;23.90;48.00;;;;;;6152122;28;83803;-70
2021/10/18 16:20:14;;;;;;;24.30;11.63;;;24.00;47.70;;;;;;6150637;28;83017;-69
2021/10/18 16:23:17;;;;;;;21.75;10.65;;;23.90;48.00;;;;;;6149533;28;84739;-72
2021/10/18 16:26:18;;;;;;;22.30;10.40;;;23.90;48.10;;;;;;6153280;28;83917;-70
2021/10/18 16:29:20;;;;;;;16.63;10.57;;;23.90;48.20;;;;;;6151181;28;83907;-72
2021/10/18 16:32:20;;;;;;;16.42;9.75;;;23.90;48.30;;;;;;6150975;28;83774;-71
2021/10/18 16:35:21;;;;;;;15.15;10.30;;;24.00;48.50;;;;;;6152839;28;84031;-70